sensor_id;sensor_type;location;lat;lon;timestamp;temperature;humidity
10175;DHT22;18221;38.704;0.152;2023-07-09T00:12:24;25.30;99.90
10175;DHT22;18221;38.704;0.152;2023-07-09T00:14:53;25.30;99.90
10175;DHT22;18221;38.704;0.152;2023-07-09T00:17:26;25.30;99.90
10175;DHT22;18221;38.704;0.152;2023-07-09T00:19:56;25.30;99.90
10175;DHT22;18221;38.704;0.152;2023-07-09T00:22:24;25.20;99.90
10175;DHT22;18221;38.704;0.152;2023-07-09T00:24:53;25.20;99.90
10175;DHT22;18221;38.704;0.152;2023-07-09T00:27:27;25.20;99.90
10175;DHT22;18221;38.704;0.152;2023-07-09T00:29:57;25.30;99.90
10175;DHT22;18221;38.704;0.152;2023-07-09T00:32:25;25.30;99.90
10175;DHT22;18221;38.704;0.152;2023-07-09T00:34:54;25.20;99.90
10175;DHT22;18221;38.704;0.152;2023-07-09T00:37:24;25.20;99.90
10175;DHT22;18221;38.704;0.152;2023-07-09T00:39:53;25.20;99.90
10175;DHT22;18221;38.704;0.152;2023-07-09T00:42:24;25.20;99.90
10175;DHT22;18221;38.704;0.152;2023-07-09T00:44:53;25.20;99.90
10175;DHT22;18221;38.704;0.152;2023-07-09T00:47:28;25.20;99.90
10175;DHT22;18221;38.704;0.152;2023-07-09T00:50:15;25.20;99.90
10175;DHT22;18221;38.704;0.152;2023-07-09T00:52:59;25.20;99.90
10175;DHT22;18221;38.704;0.152;2023-07-09T00:55:37;25.20;99.90
10175;DHT22;18221;38.704;0.152;2023-07-09T00:58:13;25.20;99.90
10175;DHT22;18221;38.704;0.152;2023-07-09T01:00:46;25.20;99.90
10175;DHT22;18221;38.704;0.152;2023-07-09T01:03:25;25.20;99.90
10175;DHT22;18221;38.704;0.152;2023-07-09T01:05:59;25.20;99.90
10175;DHT22;18221;38.704;0.152;2023-07-09T01:08:29;25.20;99.90
10175;DHT22;18221;38.704;0.152;2023-07-09T01:11:00;25.20;99.90
10175;DHT22;18221;38.704;0.152;2023-07-09T01:13:30;25.20;99.90
10175;DHT22;18221;38.704;0.152;2023-07-09T01:16:01;25.20;99.90
10175;DHT22;18221;38.704;0.152;2023-07-09T01:18:29;25.20;99.90
10175;DHT22;18221;38.704;0.152;2023-07-09T01:21:09;25.10;99.90
10175;DHT22;18221;38.704;0.152;2023-07-09T01:23:41;24.90;99.90
10175;DHT22;18221;38.704;0.152;2023-07-09T01:26:11;24.30;99.90
10175;DHT22;18221;38.704;0.152;2023-07-09T01:28:39;25.10;99.90
10175;DHT22;18221;38.704;0.152;2023-07-09T01:31:09;25.10;99.90
10175;DHT22;18221;38.704;0.152;2023-07-09T01:33:39;25.00;99.90
10175;DHT22;18221;38.704;0.152;2023-07-09T01:36:13;25.00;99.90
10175;DHT22;18221;38.704;0.152;2023-07-09T01:38:44;25.00;99.90
10175;DHT22;18221;38.704;0.152;2023-07-09T01:41:12;25.00;99.90
10175;DHT22;18221;38.704;0.152;2023-07-09T01:43:41;25.00;99.90
10175;DHT22;18221;38.704;0.152;2023-07-09T01:46:11;25.00;99.90
10175;DHT22;18221;38.704;0.152;2023-07-09T01:48:40;25.00;99.90
10175;DHT22;18221;38.704;0.152;2023-07-09T01:51:11;25.00;99.90
10175;DHT22;18221;38.704;0.152;2023-07-09T01:53:43;25.00;99.90
10175;DHT22;18221;38.704;0.152;2023-07-09T01:56:12;25.00;99.90
10175;DHT22;18221;38.704;0.152;2023-07-09T01:58:40;25.00;99.90
10175;DHT22;18221;38.704;0.152;2023-07-09T02:01:10;25.00;99.90
10175;DHT22;18221;38.704;0.152;2023-07-09T02:03:38;25.00;99.90
10175;DHT22;18221;38.704;0.152;2023-07-09T02:06:06;25.00;99.90
10175;DHT22;18221;38.704;0.152;2023-07-09T02:08:38;25.00;99.90
10175;DHT22;18221;38.704;0.152;2023-07-09T02:11:06;25.00;99.90
10175;DHT22;18221;38.704;0.152;2023-07-09T02:13:34;25.00;99.90
10175;DHT22;18221;38.704;0.152;2023-07-09T02:16:03;25.00;99.90
10175;DHT22;18221;38.704;0.152;2023-07-09T02:18:32;25.00;99.90
10175;DHT22;18221;38.704;0.152;2023-07-09T02:21:01;25.00;99.90
10175;DHT22;18221;38.704;0.152;2023-07-09T02:23:29;25.00;99.90
10175;DHT22;18221;38.704;0.152;2023-07-09T02:25:59;25.00;99.90
10175;DHT22;18221;38.704;0.152;2023-07-09T02:28:27;25.00;99.90
10175;DHT22;18221;38.704;0.152;2023-07-09T02:30:55;25.10;99.90
10175;DHT22;18221;38.704;0.152;2023-07-09T02:33:23;25.10;99.90
10175;DHT22;18221;38.704;0.152;2023-07-09T02:35:51;25.10;99.90
10175;DHT22;18221;38.704;0.152;2023-07-09T02:38:19;25.10;99.90
10175;DHT22;18221;38.704;0.152;2023-07-09T02:40:46;25.00;99.90
10175;DHT22;18221;38.704;0.152;2023-07-09T02:43:16;25.00;99.90
10175;DHT22;18221;38.704;0.152;2023-07-09T02:45:44;25.10;99.90
10175;DHT22;18221;38.704;0.152;2023-07-09T02:48:12;25.10;99.90
10175;DHT22;18221;38.704;0.152;2023-07-09T02:50:40;25.00;99.90
10175;DHT22;18221;38.704;0.152;2023-07-09T02:53:09;25.00;99.90
10175;DHT22;18221;38.704;0.152;2023-07-09T02:55:37;24.40;99.90
10175;DHT22;18221;38.704;0.152;2023-07-09T02:58:05;25.00;99.90
10175;DHT22;18221;38.704;0.152;2023-07-09T03:00:34;24.90;99.90
10175;DHT22;18221;38.704;0.152;2023-07-09T03:03:02;24.90;99.90
10175;DHT22;18221;38.704;0.152;2023-07-09T03:05:30;24.90;99.90
10175;DHT22;18221;38.704;0.152;2023-07-09T03:07:59;24.90;99.90
10175;DHT22;18221;38.704;0.152;2023-07-09T03:10:28;24.90;99.90
10175;DHT22;18221;38.704;0.152;2023-07-09T03:12:56;24.90;99.90
10175;DHT22;18221;38.704;0.152;2023-07-09T03:15:24;24.90;99.90
10175;DHT22;18221;38.704;0.152;2023-07-09T03:17:54;24.80;99.90
10175;DHT22;18221;38.704;0.152;2023-07-09T03:20:22;24.80;99.90
10175;DHT22;18221;38.704;0.152;2023-07-09T03:22:51;24.80;99.90
10175;DHT22;18221;38.704;0.152;2023-07-09T03:25:19;24.80;99.90
10175;DHT22;18221;38.704;0.152;2023-07-09T03:27:47;24.80;99.90
10175;DHT22;18221;38.704;0.152;2023-07-09T03:30:15;24.70;99.90
10175;DHT22;18221;38.704;0.152;2023-07-09T03:32:44;24.70;99.90
10175;DHT22;18221;38.704;0.152;2023-07-09T03:35:14;24.70;99.90
10175;DHT22;18221;38.704;0.152;2023-07-09T03:37:42;24.70;99.90
10175;DHT22;18221;38.704;0.152;2023-07-09T03:40:11;24.70;99.90
10175;DHT22;18221;38.704;0.152;2023-07-09T03:42:47;24.70;99.90
10175;DHT22;18221;38.704;0.152;2023-07-09T03:45:15;24.60;99.90
10175;DHT22;18221;38.704;0.152;2023-07-09T03:47:44;24.60;99.90
10175;DHT22;18221;38.704;0.152;2023-07-09T03:50:13;24.60;99.90
10175;DHT22;18221;38.704;0.152;2023-07-09T03:52:42;24.60;99.90
10175;DHT22;18221;38.704;0.152;2023-07-09T03:55:16;24.60;99.90
10175;DHT22;18221;38.704;0.152;2023-07-09T03:57:44;24.60;99.90
10175;DHT22;18221;38.704;0.152;2023-07-09T04:00:13;24.50;99.90
10175;DHT22;18221;38.704;0.152;2023-07-09T04:02:42;24.50;99.90
10175;DHT22;18221;38.704;0.152;2023-07-09T04:05:11;24.50;99.90
10175;DHT22;18221;38.704;0.152;2023-07-09T04:07:40;24.50;99.90
10175;DHT22;18221;38.704;0.152;2023-07-09T04:10:09;24.50;99.90
10175;DHT22;18221;38.704;0.152;2023-07-09T04:12:38;24.50;99.90
10175;DHT22;18221;38.704;0.152;2023-07-09T04:15:07;24.50;99.90
10175;DHT22;18221;38.704;0.152;2023-07-09T04:17:35;24.50;99.90
10175;DHT22;18221;38.704;0.152;2023-07-09T04:20:05;24.50;99.90
10175;DHT22;18221;38.704;0.152;2023-07-09T04:22:37;24.50;99.90
10175;DHT22;18221;38.704;0.152;2023-07-09T04:25:07;24.50;99.90
10175;DHT22;18221;38.704;0.152;2023-07-09T04:27:37;24.50;99.90
10175;DHT22;18221;38.704;0.152;2023-07-09T04:30:08;24.50;99.90
10175;DHT22;18221;38.704;0.152;2023-07-09T04:32:38;24.50;99.90
10175;DHT22;18221;38.704;0.152;2023-07-09T04:35:09;24.40;99.90
10175;DHT22;18221;38.704;0.152;2023-07-09T04:37:40;24.40;99.90
10175;DHT22;18221;38.704;0.152;2023-07-09T04:40:10;24.40;99.90
10175;DHT22;18221;38.704;0.152;2023-07-09T04:42:40;24.40;99.90
10175;DHT22;18221;38.704;0.152;2023-07-09T04:45:09;24.40;99.90
10175;DHT22;18221;38.704;0.152;2023-07-09T04:47:39;24.40;99.90
10175;DHT22;18221;38.704;0.152;2023-07-09T04:50:10;24.40;99.90
10175;DHT22;18221;38.704;0.152;2023-07-09T04:52:41;24.40;99.90
10175;DHT22;18221;38.704;0.152;2023-07-09T04:57:52;24.30;99.90
10175;DHT22;18221;38.704;0.152;2023-07-09T05:00:20;24.30;99.90
10175;DHT22;18221;38.704;0.152;2023-07-09T05:02:48;24.30;99.90
10175;DHT22;18221;38.704;0.152;2023-07-09T05:05:16;24.30;99.90
10175;DHT22;18221;38.704;0.152;2023-07-09T05:07:46;24.30;99.90
10175;DHT22;18221;38.704;0.152;2023-07-09T05:10:14;24.30;99.90
10175;DHT22;18221;38.704;0.152;2023-07-09T05:12:49;24.20;99.90
10175;DHT22;18221;38.704;0.152;2023-07-09T05:15:19;24.30;99.90
10175;DHT22;18221;38.704;0.152;2023-07-09T05:17:48;24.20;99.90
10175;DHT22;18221;38.704;0.152;2023-07-09T05:20:17;24.30;99.90
10175;DHT22;18221;38.704;0.152;2023-07-09T05:22:48;24.20;99.90
10175;DHT22;18221;38.704;0.152;2023-07-09T05:25:17;24.20;99.90
10175;DHT22;18221;38.704;0.152;2023-07-09T05:27:45;24.20;99.90
10175;DHT22;18221;38.704;0.152;2023-07-09T05:30:13;24.30;99.90
10175;DHT22;18221;38.704;0.152;2023-07-09T05:32:41;24.30;99.90
10175;DHT22;18221;38.704;0.152;2023-07-09T05:35:09;24.20;99.90
10175;DHT22;18221;38.704;0.152;2023-07-09T05:37:37;24.30;99.90
10175;DHT22;18221;38.704;0.152;2023-07-09T05:40:08;24.30;99.90
10175;DHT22;18221;38.704;0.152;2023-07-09T05:42:36;24.30;99.90
10175;DHT22;18221;38.704;0.152;2023-07-09T05:45:06;24.30;99.90
10175;DHT22;18221;38.704;0.152;2023-07-09T05:47:35;24.40;99.90
10175;DHT22;18221;38.704;0.152;2023-07-09T05:50:03;24.10;99.90
10175;DHT22;18221;38.704;0.152;2023-07-09T05:52:32;24.40;99.90
10175;DHT22;18221;38.704;0.152;2023-07-09T05:55:00;24.40;99.90
10175;DHT22;18221;38.704;0.152;2023-07-09T05:57:30;24.40;99.90
10175;DHT22;18221;38.704;0.152;2023-07-09T05:59:58;24.40;99.90
10175;DHT22;18221;38.704;0.152;2023-07-09T06:02:26;24.40;99.90
10175;DHT22;18221;38.704;0.152;2023-07-09T06:04:54;24.40;99.90
10175;DHT22;18221;38.704;0.152;2023-07-09T06:07:24;24.40;99.90
10175;DHT22;18221;38.704;0.152;2023-07-09T06:09:52;24.30;99.90
10175;DHT22;18221;38.704;0.152;2023-07-09T06:12:20;24.40;99.90
10175;DHT22;18221;38.704;0.152;2023-07-09T06:14:49;24.40;99.90
10175;DHT22;18221;38.704;0.152;2023-07-09T06:17:17;24.40;99.90
10175;DHT22;18221;38.704;0.152;2023-07-09T06:19:45;24.40;99.90
10175;DHT22;18221;38.704;0.152;2023-07-09T06:22:14;24.50;99.90
10175;DHT22;18221;38.704;0.152;2023-07-09T06:24:42;24.50;99.90
10175;DHT22;18221;38.704;0.152;2023-07-09T06:27:12;24.50;99.90
10175;DHT22;18221;38.704;0.152;2023-07-09T06:29:40;24.50;99.90
10175;DHT22;18221;38.704;0.152;2023-07-09T06:32:10;24.60;99.90
10175;DHT22;18221;38.704;0.152;2023-07-09T06:34:38;24.60;99.90
10175;DHT22;18221;38.704;0.152;2023-07-09T06:37:06;24.70;99.90
10175;DHT22;18221;38.704;0.152;2023-07-09T06:39:34;24.80;99.90
10175;DHT22;18221;38.704;0.152;2023-07-09T06:42:02;24.80;99.90
10175;DHT22;18221;38.704;0.152;2023-07-09T06:44:31;24.90;99.90
10175;DHT22;18221;38.704;0.152;2023-07-09T06:46:59;25.00;99.90
10175;DHT22;18221;38.704;0.152;2023-07-09T06:49:28;25.10;99.90
10175;DHT22;18221;38.704;0.152;2023-07-09T06:51:56;25.10;99.90
10175;DHT22;18221;38.704;0.152;2023-07-09T06:54:25;25.20;99.90
10175;DHT22;18221;38.704;0.152;2023-07-09T06:56:53;25.20;99.90
10175;DHT22;18221;38.704;0.152;2023-07-09T06:59:21;25.30;99.90
10175;DHT22;18221;38.704;0.152;2023-07-09T07:01:49;25.30;99.90
10175;DHT22;18221;38.704;0.152;2023-07-09T07:04:18;25.30;99.90
10175;DHT22;18221;38.704;0.152;2023-07-09T07:06:47;25.30;99.90
10175;DHT22;18221;38.704;0.152;2023-07-09T07:09:15;25.40;99.90
10175;DHT22;18221;38.704;0.152;2023-07-09T07:11:43;25.40;99.90
10175;DHT22;18221;38.704;0.152;2023-07-09T07:14:11;25.50;99.90
10175;DHT22;18221;38.704;0.152;2023-07-09T07:16:39;25.50;99.90
10175;DHT22;18221;38.704;0.152;2023-07-09T07:19:07;25.50;99.90
10175;DHT22;18221;38.704;0.152;2023-07-09T07:21:36;25.50;99.90
10175;DHT22;18221;38.704;0.152;2023-07-09T07:24:06;25.50;99.90
10175;DHT22;18221;38.704;0.152;2023-07-09T07:26:34;25.60;99.90
10175;DHT22;18221;38.704;0.152;2023-07-09T07:29:02;25.60;99.90
10175;DHT22;18221;38.704;0.152;2023-07-09T07:31:30;25.60;99.90
10175;DHT22;18221;38.704;0.152;2023-07-09T07:33:58;25.60;99.90
10175;DHT22;18221;38.704;0.152;2023-07-09T07:36:26;25.70;99.90
10175;DHT22;18221;38.704;0.152;2023-07-09T07:38:55;25.70;99.90
10175;DHT22;18221;38.704;0.152;2023-07-09T07:41:25;25.80;99.90
10175;DHT22;18221;38.704;0.152;2023-07-09T07:43:54;25.80;99.90
10175;DHT22;18221;38.704;0.152;2023-07-09T07:46:22;25.80;99.90
10175;DHT22;18221;38.704;0.152;2023-07-09T07:48:50;25.90;99.90
10175;DHT22;18221;38.704;0.152;2023-07-09T07:51:19;26.00;99.90
10175;DHT22;18221;38.704;0.152;2023-07-09T07:53:48;26.10;99.90
10175;DHT22;18221;38.704;0.152;2023-07-09T07:56:16;26.10;99.90
10175;DHT22;18221;38.704;0.152;2023-07-09T07:58:45;26.10;99.90
10175;DHT22;18221;38.704;0.152;2023-07-09T08:01:13;26.20;99.90
10175;DHT22;18221;38.704;0.152;2023-07-09T08:03:41;26.20;99.90
10175;DHT22;18221;38.704;0.152;2023-07-09T08:06:10;26.30;99.90
10175;DHT22;18221;38.704;0.152;2023-07-09T08:08:38;26.30;99.90
10175;DHT22;18221;38.704;0.152;2023-07-09T08:11:07;26.30;99.90
10175;DHT22;18221;38.704;0.152;2023-07-09T08:13:35;26.30;99.90
10175;DHT22;18221;38.704;0.152;2023-07-09T08:16:06;26.30;99.90
10175;DHT22;18221;38.704;0.152;2023-07-09T08:18:37;26.20;99.90
10175;DHT22;18221;38.704;0.152;2023-07-09T08:21:08;26.30;99.90
10175;DHT22;18221;38.704;0.152;2023-07-09T08:23:36;27.40;99.90
10175;DHT22;18221;38.704;0.152;2023-07-09T08:26:05;26.40;99.90
10175;DHT22;18221;38.704;0.152;2023-07-09T08:28:34;26.50;99.90
10175;DHT22;18221;38.704;0.152;2023-07-09T08:31:02;26.70;99.90
10175;DHT22;18221;38.704;0.152;2023-07-09T08:33:32;26.90;99.90
10175;DHT22;18221;38.704;0.152;2023-07-09T08:36:00;27.00;99.90
10175;DHT22;18221;38.704;0.152;2023-07-09T08:38:31;27.10;99.90
10175;DHT22;18221;38.704;0.152;2023-07-09T08:41:01;27.20;99.90
10175;DHT22;18221;38.704;0.152;2023-07-09T08:43:39;27.30;99.90
10175;DHT22;18221;38.704;0.152;2023-07-09T08:46:24;27.30;99.90
10175;DHT22;18221;38.704;0.152;2023-07-09T08:49:08;27.30;99.90
10175;DHT22;18221;38.704;0.152;2023-07-09T08:51:44;27.40;99.90
10175;DHT22;18221;38.704;0.152;2023-07-09T08:54:18;27.50;99.90
10175;DHT22;18221;38.704;0.152;2023-07-09T08:56:52;27.50;99.90
10175;DHT22;18221;38.704;0.152;2023-07-09T08:59:22;27.60;99.90
10175;DHT22;18221;38.704;0.152;2023-07-09T09:01:53;27.60;99.90
10175;DHT22;18221;38.704;0.152;2023-07-09T09:04:28;27.60;99.90
10175;DHT22;18221;38.704;0.152;2023-07-09T09:07:03;27.70;99.90
10175;DHT22;18221;38.704;0.152;2023-07-09T09:09:43;27.80;99.90
10175;DHT22;18221;38.704;0.152;2023-07-09T09:12:21;27.80;99.90
10175;DHT22;18221;38.704;0.152;2023-07-09T09:14:57;27.80;99.90
10175;DHT22;18221;38.704;0.152;2023-07-09T09:17:34;27.90;99.90
10175;DHT22;18221;38.704;0.152;2023-07-09T09:20:09;28.00;99.90
10175;DHT22;18221;38.704;0.152;2023-07-09T09:22:47;28.00;99.90
10175;DHT22;18221;38.704;0.152;2023-07-09T09:25:25;27.90;99.90
10175;DHT22;18221;38.704;0.152;2023-07-09T09:27:56;27.80;99.90
10175;DHT22;18221;38.704;0.152;2023-07-09T09:30:25;27.80;99.90
10175;DHT22;18221;38.704;0.152;2023-07-09T09:32:57;27.80;99.90
10175;DHT22;18221;38.704;0.152;2023-07-09T09:35:28;27.80;99.90
10175;DHT22;18221;38.704;0.152;2023-07-09T09:37:58;27.70;99.90
10175;DHT22;18221;38.704;0.152;2023-07-09T09:40:34;27.70;99.90
10175;DHT22;18221;38.704;0.152;2023-07-09T09:43:11;27.70;99.90
10175;DHT22;18221;38.704;0.152;2023-07-09T09:45:43;27.70;99.90
10175;DHT22;18221;38.704;0.152;2023-07-09T09:48:17;27.70;99.90
10175;DHT22;18221;38.704;0.152;2023-07-09T09:50:47;27.70;99.90
10175;DHT22;18221;38.704;0.152;2023-07-09T09:53:20;27.80;99.90
10175;DHT22;18221;38.704;0.152;2023-07-09T09:55:51;27.90;99.90
10175;DHT22;18221;38.704;0.152;2023-07-09T09:58:24;27.80;99.90
10175;DHT22;18221;38.704;0.152;2023-07-09T10:00:56;27.80;99.90
10175;DHT22;18221;38.704;0.152;2023-07-09T10:03:35;27.80;99.90
10175;DHT22;18221;38.704;0.152;2023-07-09T10:06:10;27.70;99.90
10175;DHT22;18221;38.704;0.152;2023-07-09T10:08:50;27.70;99.90
10175;DHT22;18221;38.704;0.152;2023-07-09T10:11:29;27.70;99.90
10175;DHT22;18221;38.704;0.152;2023-07-09T10:14:09;27.70;99.90
10175;DHT22;18221;38.704;0.152;2023-07-09T10:16:53;27.70;99.90
10175;DHT22;18221;38.704;0.152;2023-07-09T10:19:34;27.70;99.90
10175;DHT22;18221;38.704;0.152;2023-07-09T10:22:10;27.60;99.90
10175;DHT22;18221;38.704;0.152;2023-07-09T10:24:51;27.60;99.90
10175;DHT22;18221;38.704;0.152;2023-07-09T10:27:31;27.50;99.90
10175;DHT22;18221;38.704;0.152;2023-07-09T10:30:30;27.40;99.90
10175;DHT22;18221;38.704;0.152;2023-07-09T10:33:10;27.40;99.90
10175;DHT22;18221;38.704;0.152;2023-07-09T10:35:50;27.30;99.90
10175;DHT22;18221;38.704;0.152;2023-07-09T10:38:38;27.20;99.90
10175;DHT22;18221;38.704;0.152;2023-07-09T10:41:16;27.20;99.90
10175;DHT22;18221;38.704;0.152;2023-07-09T10:43:52;27.10;99.90
10175;DHT22;18221;38.704;0.152;2023-07-09T10:46:29;27.10;99.90
10175;DHT22;18221;38.704;0.152;2023-07-09T10:49:02;27.10;99.90
10175;DHT22;18221;38.704;0.152;2023-07-09T10:51:38;27.10;99.90
10175;DHT22;18221;38.704;0.152;2023-07-09T10:54:17;27.20;99.90
10175;DHT22;18221;38.704;0.152;2023-07-09T10:57:02;27.30;99.90
10175;DHT22;18221;38.704;0.152;2023-07-09T10:59:36;27.40;99.90
10175;DHT22;18221;38.704;0.152;2023-07-09T11:02:18;27.50;99.90
10175;DHT22;18221;38.704;0.152;2023-07-09T11:04:54;27.70;99.90
10175;DHT22;18221;38.704;0.152;2023-07-09T11:07:29;27.90;99.90
10175;DHT22;18221;38.704;0.152;2023-07-09T11:10:03;28.00;99.90
10175;DHT22;18221;38.704;0.152;2023-07-09T11:12:38;28.10;99.90
10175;DHT22;18221;38.704;0.152;2023-07-09T11:15:12;28.10;99.90
10175;DHT22;18221;38.704;0.152;2023-07-09T11:17:45;28.10;99.90
10175;DHT22;18221;38.704;0.152;2023-07-09T11:20:20;28.10;99.90
10175;DHT22;18221;38.704;0.152;2023-07-09T11:22:59;28.20;99.90
10175;DHT22;18221;38.704;0.152;2023-07-09T11:25:39;28.20;99.90
10175;DHT22;18221;38.704;0.152;2023-07-09T11:28:09;28.20;99.90
10175;DHT22;18221;38.704;0.152;2023-07-09T11:30:49;28.20;99.90
10175;DHT22;18221;38.704;0.152;2023-07-09T11:33:19;28.30;99.90
10175;DHT22;18221;38.704;0.152;2023-07-09T11:36:04;28.30;99.90
10175;DHT22;18221;38.704;0.152;2023-07-09T11:38:42;28.50;99.90
10175;DHT22;18221;38.704;0.152;2023-07-09T11:41:26;28.60;99.90
10175;DHT22;18221;38.704;0.152;2023-07-09T11:44:17;28.70;99.90
10175;DHT22;18221;38.704;0.152;2023-07-09T11:47:04;28.70;99.90
10175;DHT22;18221;38.704;0.152;2023-07-09T11:49:52;28.70;99.90
10175;DHT22;18221;38.704;0.152;2023-07-09T11:52:30;28.80;99.90
10175;DHT22;18221;38.704;0.152;2023-07-09T11:55:19;28.80;99.90
10175;DHT22;18221;38.704;0.152;2023-07-09T11:57:53;28.80;99.90
10175;DHT22;18221;38.704;0.152;2023-07-09T12:00:22;28.90;99.90
10175;DHT22;18221;38.704;0.152;2023-07-09T12:02:51;28.70;99.90
10175;DHT22;18221;38.704;0.152;2023-07-09T12:05:22;28.70;99.90
10175;DHT22;18221;38.704;0.152;2023-07-09T12:07:55;28.70;99.90
10175;DHT22;18221;38.704;0.152;2023-07-09T12:10:31;28.60;99.90
10175;DHT22;18221;38.704;0.152;2023-07-09T12:13:01;28.70;99.90
10175;DHT22;18221;38.704;0.152;2023-07-09T12:15:30;28.80;99.90
10175;DHT22;18221;38.704;0.152;2023-07-09T12:18:01;28.90;99.90
10175;DHT22;18221;38.704;0.152;2023-07-09T12:20:34;29.00;99.90
10175;DHT22;18221;38.704;0.152;2023-07-09T12:23:10;29.10;99.90
10175;DHT22;18221;38.704;0.152;2023-07-09T12:25:50;29.10;99.90
10175;DHT22;18221;38.704;0.152;2023-07-09T12:28:20;29.20;99.90
10175;DHT22;18221;38.704;0.152;2023-07-09T12:30:51;29.10;99.90
10175;DHT22;18221;38.704;0.152;2023-07-09T12:33:22;29.20;99.90
10175;DHT22;18221;38.704;0.152;2023-07-09T12:35:56;29.10;99.90
10175;DHT22;18221;38.704;0.152;2023-07-09T12:38:28;28.90;99.90
10175;DHT22;18221;38.704;0.152;2023-07-09T12:41:00;28.90;99.90
10175;DHT22;18221;38.704;0.152;2023-07-09T12:43:32;28.80;99.90
10175;DHT22;18221;38.704;0.152;2023-07-09T12:46:00;28.90;99.90
10175;DHT22;18221;38.704;0.152;2023-07-09T12:48:29;29.10;99.90
10175;DHT22;18221;38.704;0.152;2023-07-09T12:50:58;29.10;99.90
10175;DHT22;18221;38.704;0.152;2023-07-09T12:53:28;29.20;99.90
10175;DHT22;18221;38.704;0.152;2023-07-09T12:55:59;29.30;99.90
10175;DHT22;18221;38.704;0.152;2023-07-09T12:58:30;29.20;99.90
10175;DHT22;18221;38.704;0.152;2023-07-09T13:01:04;29.20;99.90
10175;DHT22;18221;38.704;0.152;2023-07-09T13:03:34;29.00;99.90
10175;DHT22;18221;38.704;0.152;2023-07-09T13:06:04;29.10;99.90
10175;DHT22;18221;38.704;0.152;2023-07-09T13:08:42;29.20;99.90
10175;DHT22;18221;38.704;0.152;2023-07-09T13:11:16;29.20;99.90
10175;DHT22;18221;38.704;0.152;2023-07-09T13:13:55;29.10;99.90
10175;DHT22;18221;38.704;0.152;2023-07-09T13:16:24;29.00;99.90
10175;DHT22;18221;38.704;0.152;2023-07-09T13:18:53;29.00;99.90
10175;DHT22;18221;38.704;0.152;2023-07-09T13:21:22;28.90;99.90
10175;DHT22;18221;38.704;0.152;2023-07-09T13:23:55;28.80;99.90
10175;DHT22;18221;38.704;0.152;2023-07-09T13:26:28;28.80;99.90
10175;DHT22;18221;38.704;0.152;2023-07-09T13:28:56;28.80;99.90
10175;DHT22;18221;38.704;0.152;2023-07-09T13:31:24;28.70;99.90
10175;DHT22;18221;38.704;0.152;2023-07-09T13:33:54;28.70;99.90
10175;DHT22;18221;38.704;0.152;2023-07-09T13:36:25;28.70;99.90
10175;DHT22;18221;38.704;0.152;2023-07-09T13:38:53;28.70;99.90
10175;DHT22;18221;38.704;0.152;2023-07-09T13:41:21;28.80;99.90
10175;DHT22;18221;38.704;0.152;2023-07-09T13:43:52;28.70;99.90
10175;DHT22;18221;38.704;0.152;2023-07-09T13:46:22;28.80;99.90
10175;DHT22;18221;38.704;0.152;2023-07-09T13:48:52;28.70;99.90
10175;DHT22;18221;38.704;0.152;2023-07-09T13:51:21;28.80;99.90
10175;DHT22;18221;38.704;0.152;2023-07-09T13:53:53;28.90;99.90
10175;DHT22;18221;38.704;0.152;2023-07-09T13:56:23;29.10;99.90
10175;DHT22;18221;38.704;0.152;2023-07-09T13:58:53;29.30;99.90
10175;DHT22;18221;38.704;0.152;2023-07-09T14:01:23;29.60;99.90
10175;DHT22;18221;38.704;0.152;2023-07-09T14:03:52;29.60;99.90
10175;DHT22;18221;38.704;0.152;2023-07-09T14:06:24;29.60;99.90
10175;DHT22;18221;38.704;0.152;2023-07-09T14:08:52;29.60;99.90
10175;DHT22;18221;38.704;0.152;2023-07-09T14:11:20;29.70;99.90
10175;DHT22;18221;38.704;0.152;2023-07-09T14:13:49;29.70;99.90
10175;DHT22;18221;38.704;0.152;2023-07-09T14:16:19;29.60;99.90
10175;DHT22;18221;38.704;0.152;2023-07-09T14:18:47;29.60;99.90
10175;DHT22;18221;38.704;0.152;2023-07-09T14:21:20;29.60;99.90
10175;DHT22;18221;38.704;0.152;2023-07-09T14:23:52;29.80;99.90
10175;DHT22;18221;38.704;0.152;2023-07-09T14:26:20;29.70;99.90
10175;DHT22;18221;38.704;0.152;2023-07-09T14:28:48;29.60;99.90
10175;DHT22;18221;38.704;0.152;2023-07-09T14:31:24;29.50;99.90
10175;DHT22;18221;38.704;0.152;2023-07-09T14:33:56;29.50;99.90
10175;DHT22;18221;38.704;0.152;2023-07-09T14:36:43;29.40;99.90
10175;DHT22;18221;38.704;0.152;2023-07-09T14:39:11;29.50;99.90
10175;DHT22;18221;38.704;0.152;2023-07-09T14:41:39;29.50;99.90
10175;DHT22;18221;38.704;0.152;2023-07-09T14:44:20;29.50;99.90
10175;DHT22;18221;38.704;0.152;2023-07-09T14:46:53;29.50;99.90
10175;DHT22;18221;38.704;0.152;2023-07-09T14:49:22;29.50;99.90
10175;DHT22;18221;38.704;0.152;2023-07-09T14:51:51;29.40;99.90
10175;DHT22;18221;38.704;0.152;2023-07-09T14:54:21;29.40;99.90
10175;DHT22;18221;38.704;0.152;2023-07-09T14:56:51;29.40;99.90
10175;DHT22;18221;38.704;0.152;2023-07-09T14:59:21;29.50;99.90
10175;DHT22;18221;38.704;0.152;2023-07-09T15:01:53;29.60;99.90
10175;DHT22;18221;38.704;0.152;2023-07-09T15:04:30;29.60;99.90
10175;DHT22;18221;38.704;0.152;2023-07-09T15:07:00;29.60;99.90
10175;DHT22;18221;38.704;0.152;2023-07-09T15:09:28;29.60;99.90
10175;DHT22;18221;38.704;0.152;2023-07-09T15:11:58;29.60;99.90
10175;DHT22;18221;38.704;0.152;2023-07-09T15:14:27;29.60;99.90
10175;DHT22;18221;38.704;0.152;2023-07-09T15:16:57;29.70;99.90
10175;DHT22;18221;38.704;0.152;2023-07-09T15:19:25;29.70;99.90
10175;DHT22;18221;38.704;0.152;2023-07-09T15:21:54;29.70;99.90
10175;DHT22;18221;38.704;0.152;2023-07-09T15:24:26;29.60;99.90
10175;DHT22;18221;38.704;0.152;2023-07-09T15:26:57;29.60;99.90
10175;DHT22;18221;38.704;0.152;2023-07-09T15:29:27;29.50;99.90
10175;DHT22;18221;38.704;0.152;2023-07-09T15:31:58;29.50;99.90
10175;DHT22;18221;38.704;0.152;2023-07-09T15:34:29;29.60;99.90
10175;DHT22;18221;38.704;0.152;2023-07-09T15:36:57;29.70;99.90
10175;DHT22;18221;38.704;0.152;2023-07-09T15:39:25;29.70;99.90
10175;DHT22;18221;38.704;0.152;2023-07-09T15:41:53;29.80;99.90
10175;DHT22;18221;38.704;0.152;2023-07-09T15:44:21;29.90;99.90
10175;DHT22;18221;38.704;0.152;2023-07-09T15:46:52;29.90;99.90
10175;DHT22;18221;38.704;0.152;2023-07-09T15:49:23;29.80;99.90
10175;DHT22;18221;38.704;0.152;2023-07-09T15:51:52;29.80;99.90
10175;DHT22;18221;38.704;0.152;2023-07-09T15:54:23;29.80;99.90
10175;DHT22;18221;38.704;0.152;2023-07-09T15:56:52;29.80;99.90
10175;DHT22;18221;38.704;0.152;2023-07-09T15:59:26;29.80;99.90
10175;DHT22;18221;38.704;0.152;2023-07-09T16:02:00;29.70;99.90
10175;DHT22;18221;38.704;0.152;2023-07-09T16:04:31;29.60;99.90
10175;DHT22;18221;38.704;0.152;2023-07-09T16:06:59;29.60;99.90
10175;DHT22;18221;38.704;0.152;2023-07-09T16:09:27;29.60;99.90